createdAt,value
2024-02-05T00:02:05.973Z,11.71
2024-02-05T00:04:32.936Z,11.69
2024-02-05T00:07:00.511Z,11.65
2024-02-05T00:09:27.360Z,11.66
2024-02-05T00:11:54.080Z,11.69
2024-02-05T00:14:20.916Z,11.63
2024-02-05T00:16:47.920Z,11.62
2024-02-05T00:19:15.044Z,11.64
2024-02-05T00:21:41.886Z,11.63
2024-02-05T00:24:09.126Z,11.62
2024-02-05T00:26:35.899Z,11.62
2024-02-05T00:29:03.473Z,11.58
2024-02-05T00:31:30.187Z,11.58
2024-02-05T00:33:57.230Z,11.61
2024-02-05T00:36:24.365Z,11.54
2024-02-05T00:38:51.229Z,11.51
2024-02-05T00:41:18.229Z,11.45
2024-02-05T00:43:44.980Z,11.42
2024-02-05T00:46:22.130Z,11.44
2024-02-05T00:48:49.219Z,11.43
2024-02-05T00:51:16.144Z,11.43
2024-02-05T00:53:42.885Z,11.42
2024-02-05T00:56:09.646Z,11.33
2024-02-05T00:58:36.492Z,11.28
2024-02-05T01:01:03.344Z,11.21
2024-02-05T01:03:30.416Z,11.20
2024-02-05T01:05:59.512Z,11.12
2024-02-05T01:08:26.710Z,11.11
2024-02-05T01:10:57.651Z,11.12
2024-02-05T01:13:24.774Z,11.09
2024-02-05T01:15:51.758Z,11.06
2024-02-05T01:18:19.032Z,11.13
2024-02-05T01:20:45.901Z,11.12
2024-02-05T01:23:12.685Z,11.11
2024-02-05T01:25:41.482Z,11.06
2024-02-05T01:28:08.420Z,11.04
2024-02-05T01:30:35.487Z,11.07
2024-02-05T01:33:02.583Z,11.10
2024-02-05T01:35:29.415Z,11.05
2024-02-05T01:37:56.371Z,11.07
2024-02-05T01:40:23.229Z,11.10
2024-02-05T01:42:50.257Z,11.08
2024-02-05T01:45:17.178Z,11.01
2024-02-05T01:47:44.179Z,11.06
2024-02-05T01:50:13.168Z,11.03
2024-02-05T01:52:43.133Z,11.05
2024-02-05T01:55:15.982Z,11.10
2024-02-05T01:57:43.114Z,11.13
2024-02-05T02:00:12.357Z,11.14
2024-02-05T02:02:41.091Z,11.12
2024-02-05T02:05:08.468Z,11.18
2024-02-05T02:07:35.450Z,11.21
2024-02-05T02:10:02.293Z,11.27
2024-02-05T02:12:29.367Z,11.30
2024-02-05T02:14:56.093Z,11.35
2024-02-05T02:17:27.108Z,11.31
2024-02-05T02:19:54.371Z,11.39
2024-02-05T02:22:39.677Z,11.40
2024-02-05T02:25:08.011Z,11.50
2024-02-05T02:27:35.259Z,11.48
2024-02-05T02:30:03.137Z,11.53
2024-02-05T02:33:01.780Z,11.60
2024-02-05T02:35:41.276Z,11.64
2024-02-05T02:38:26.140Z,11.65
2024-02-05T02:44:40.264Z,11.69
2024-02-05T02:47:07.132Z,11.67
2024-02-05T02:49:34.104Z,11.68
2024-02-05T02:52:01.019Z,11.78
2024-02-05T02:54:28.164Z,11.77
2024-02-05T02:56:54.973Z,11.75
2024-02-05T02:59:21.873Z,11.70
2024-02-05T03:01:48.708Z,11.78
2024-02-05T03:04:15.821Z,11.80
2024-02-05T03:06:42.874Z,11.85
2024-02-05T03:09:09.804Z,11.70
2024-02-05T03:11:36.693Z,11.71
2024-02-05T03:14:03.551Z,11.76
2024-02-05T03:16:30.404Z,11.67
2024-02-05T03:18:57.343Z,11.79
2024-02-05T03:21:24.254Z,11.85
2024-02-05T03:23:51.180Z,11.84
2024-02-05T03:26:18.017Z,11.80
2024-02-05T03:28:44.871Z,11.86
2024-02-05T03:31:11.717Z,11.88
2024-02-05T03:33:39.155Z,11.87
2024-02-05T03:36:06.125Z,11.87
2024-02-05T03:38:32.920Z,11.82
2024-02-05T03:40:59.698Z,11.88
2024-02-05T03:43:26.557Z,11.84
2024-02-05T03:45:53.386Z,11.84
2024-02-05T03:48:20.997Z,11.71
2024-02-05T03:50:47.850Z,11.47
2024-02-05T03:53:14.669Z,11.42
2024-02-05T03:55:41.733Z,11.37
2024-02-05T03:58:08.612Z,11.61
2024-02-05T04:00:35.637Z,11.64
2024-02-05T04:03:02.514Z,11.42
2024-02-05T04:05:32.925Z,11.38
2024-02-05T04:08:00.136Z,11.31
2024-02-05T04:10:28.388Z,11.33
2024-02-05T04:12:55.707Z,11.41
2024-02-05T04:15:22.526Z,11.50
2024-02-05T04:17:50.298Z,11.43
2024-02-05T04:20:17.444Z,11.49
2024-02-05T04:22:44.373Z,11.44
2024-02-05T04:25:11.573Z,11.38
2024-02-05T04:27:38.506Z,11.40
2024-02-05T04:30:06.039Z,11.37
2024-02-05T04:32:33.013Z,11.43
2024-02-05T04:35:00.392Z,11.43
2024-02-05T04:37:28.332Z,11.49
2024-02-05T04:39:56.100Z,11.52
2024-02-05T04:42:23.054Z,11.35
2024-02-05T04:44:50.635Z,11.38
2024-02-05T04:47:17.772Z,11.29
2024-02-05T04:49:46.904Z,11.31
2024-02-05T04:52:13.845Z,11.30
2024-02-05T04:54:41.862Z,11.35
2024-02-05T04:57:08.787Z,11.35
2024-02-05T04:59:36.398Z,11.43
2024-02-05T05:02:03.499Z,11.35
2024-02-05T05:04:31.023Z,11.39
2024-02-05T05:06:58.164Z,11.42
2024-02-05T05:09:25.079Z,11.43
2024-02-05T05:11:52.151Z,11.25
2024-02-05T05:14:19.166Z,11.43
2024-02-05T05:16:45.956Z,11.41
2024-02-05T05:19:12.995Z,11.52
2024-02-05T05:21:39.983Z,11.64
2024-02-05T05:24:06.739Z,11.72
2024-02-05T05:26:33.510Z,11.82
2024-02-05T05:29:00.320Z,11.83
2024-02-05T05:31:27.262Z,11.86
2024-02-05T05:33:54.181Z,11.90
2024-02-05T05:36:21.006Z,11.92
2024-02-05T05:38:47.764Z,11.92
2024-02-05T05:41:14.602Z,11.89
2024-02-05T05:43:41.457Z,11.93
2024-02-05T05:46:08.697Z,11.95
2024-02-05T05:48:37.547Z,12.06
2024-02-05T05:51:04.431Z,12.06
2024-02-05T05:53:31.830Z,12.07
2024-02-05T05:55:59.210Z,12.08
2024-02-05T05:58:28.592Z,12.19
2024-02-05T06:00:56.269Z,12.31
2024-02-05T06:03:24.168Z,12.24
2024-02-05T06:05:51.829Z,12.21
2024-02-05T06:08:20.381Z,12.32
2024-02-05T06:10:48.220Z,12.36
2024-02-05T06:13:18.812Z,12.38
2024-02-05T06:15:46.532Z,12.40
2024-02-05T06:18:15.098Z,12.35
2024-02-05T06:20:42.198Z,12.29
2024-02-05T06:23:09.234Z,12.28
2024-02-05T06:25:36.108Z,12.31
2024-02-05T06:28:03.979Z,12.31
2024-02-05T06:30:32.553Z,12.28
2024-02-05T06:32:59.583Z,12.29
2024-02-05T06:35:26.496Z,12.36
2024-02-05T06:37:53.408Z,12.39
2024-02-05T06:40:20.286Z,12.40
2024-02-05T06:42:47.716Z,12.40
2024-02-05T06:45:15.303Z,12.38
2024-02-05T06:47:42.304Z,12.42
2024-02-05T06:50:11.175Z,12.44
2024-02-05T06:52:38.085Z,12.40
2024-02-05T06:55:05.197Z,12.47
2024-02-05T06:57:32.342Z,12.49
2024-02-05T06:59:59.182Z,12.42
2024-02-05T07:02:26.131Z,12.47
2024-02-05T07:04:53.115Z,12.47
2024-02-05T07:07:20.128Z,12.44
2024-02-05T07:09:47.179Z,12.43
2024-02-05T07:12:14.047Z,12.45
2024-02-05T07:14:41.060Z,12.50
2024-02-05T07:17:08.048Z,12.51
2024-02-05T07:19:35.661Z,12.49
2024-02-05T07:22:02.736Z,12.60
2024-02-05T07:24:29.577Z,12.56
2024-02-05T07:26:56.450Z,12.62
2024-02-05T07:29:23.204Z,12.65
2024-02-05T07:31:49.980Z,12.67
2024-02-05T07:34:16.923Z,12.72
2024-02-05T07:36:43.907Z,12.67
2024-02-05T07:39:12.491Z,12.66
2024-02-05T07:41:39.763Z,12.71
2024-02-05T07:44:06.546Z,12.75
2024-02-05T07:46:33.366Z,12.72
2024-02-05T07:49:00.259Z,12.78
2024-02-05T07:51:27.232Z,12.69
2024-02-05T07:53:54.070Z,12.73
2024-02-05T07:56:20.897Z,12.74
2024-02-05T07:58:47.780Z,12.88
2024-02-05T08:01:14.748Z,12.92
2024-02-05T08:03:41.832Z,12.78
2024-02-05T08:06:09.432Z,12.86
2024-02-05T08:08:36.210Z,12.80
2024-02-05T08:11:03.110Z,12.81
2024-02-05T08:13:30.102Z,12.77
2024-02-05T08:15:57.276Z,12.73
2024-02-05T08:18:24.720Z,12.83
2024-02-05T08:20:51.674Z,12.91
2024-02-05T08:23:18.427Z,12.87
2024-02-05T08:25:45.411Z,12.94
2024-02-05T08:28:12.284Z,12.92
2024-02-05T08:30:39.250Z,12.89
2024-02-05T08:33:06.173Z,12.92
2024-02-05T08:35:33.088Z,12.87
2024-02-05T08:37:59.914Z,13.15
2024-02-05T08:40:27.028Z,12.93
2024-02-05T08:42:53.927Z,13.05
2024-02-05T08:45:20.923Z,13.07
2024-02-05T08:47:47.802Z,13.16
2024-02-05T08:50:15.700Z,13.26
2024-02-05T08:52:42.559Z,13.14
2024-02-05T08:55:10.284Z,12.98
2024-02-05T08:57:38.292Z,13.00
2024-02-05T09:00:10.721Z,12.95
2024-02-05T09:02:38.368Z,12.86
2024-02-05T09:05:06.288Z,12.82
2024-02-05T09:07:33.350Z,12.83
2024-02-05T09:10:00.338Z,12.90
2024-02-05T09:12:27.379Z,12.84
2024-02-05T09:14:55.546Z,12.76
2024-02-05T09:17:22.710Z,12.75
2024-02-05T09:19:49.812Z,12.87
2024-02-05T09:22:16.777Z,12.92
2024-02-05T09:24:43.661Z,12.82
2024-02-05T09:27:10.555Z,12.92
2024-02-05T09:29:37.532Z,12.84
2024-02-05T09:32:06.582Z,12.83
2024-02-05T09:34:34.384Z,12.85
2024-02-05T09:37:04.502Z,12.85
2024-02-05T09:39:31.830Z,12.87
2024-02-05T09:42:05.454Z,12.95
2024-02-05T09:44:36.718Z,13.00
2024-02-05T09:47:06.267Z,13.04
2024-02-05T09:49:33.551Z,12.97
2024-02-05T09:52:02.948Z,13.15
2024-02-05T09:54:29.588Z,13.12
2024-02-05T09:56:56.454Z,13.21
2024-02-05T09:59:23.386Z,13.29
2024-02-05T10:01:50.388Z,13.49
2024-02-05T10:04:19.396Z,13.76
2024-02-05T10:06:48.794Z,13.68
2024-02-05T10:09:15.603Z,13.64
2024-02-05T10:11:50.620Z,13.63
2024-02-05T10:14:17.620Z,13.70
2024-02-05T10:16:47.327Z,13.73
2024-02-05T10:19:14.581Z,13.67
2024-02-05T10:21:42.954Z,13.69
2024-02-05T10:24:14.596Z,13.91
2024-02-05T10:26:42.222Z,14.44
2024-02-05T10:29:09.885Z,14.21
2024-02-05T10:31:45.908Z,14.74
2024-02-05T10:34:17.573Z,14.80
2024-02-05T10:36:45.285Z,14.40
2024-02-05T10:39:24.830Z,14.64
2024-02-05T10:41:53.969Z,14.73
2024-02-05T10:44:29.897Z,14.46
2024-02-05T10:47:04.952Z,14.64
2024-02-05T10:49:32.020Z,14.59
2024-02-05T10:52:00.836Z,14.76
2024-02-05T10:54:27.839Z,15.56
2024-02-05T10:56:56.222Z,14.65
2024-02-05T10:59:24.209Z,14.54
2024-02-05T11:01:56.218Z,14.45
2024-02-05T11:04:24.387Z,14.22
2024-02-05T11:06:53.958Z,14.40
2024-02-05T11:09:24.831Z,14.31
2024-02-05T11:11:53.681Z,14.35
2024-02-05T11:14:20.751Z,14.26
2024-02-05T11:16:48.010Z,14.23
2024-02-05T11:19:16.818Z,13.96
2024-02-05T11:21:47.738Z,13.93
2024-02-05T11:24:18.000Z,13.98
2024-02-05T11:26:44.934Z,13.84
2024-02-05T11:29:24.928Z,13.70
2024-02-05T11:31:53.712Z,13.67
2024-02-05T11:34:22.147Z,13.71
2024-02-05T11:36:49.222Z,13.85
2024-02-05T11:39:17.957Z,13.73
2024-02-05T11:41:44.985Z,13.76
2024-02-05T11:44:16.708Z,13.79
2024-02-05T11:46:43.757Z,13.97
2024-02-05T11:49:11.023Z,13.83
2024-02-05T11:51:43.621Z,13.80
2024-02-05T11:54:11.912Z,13.87
2024-02-05T11:56:40.724Z,13.83
2024-02-05T11:59:10.239Z,13.94
2024-02-05T12:01:38.115Z,13.98
2024-02-05T12:04:05.359Z,14.34
2024-02-05T12:06:32.672Z,14.27
2024-02-05T12:09:00.124Z,14.31
2024-02-05T12:11:26.973Z,14.76
2024-02-05T12:13:58.335Z,14.63
2024-02-05T12:16:29.561Z,14.54
2024-02-05T12:19:08.783Z,14.31
2024-02-05T12:21:39.589Z,14.19
2024-02-05T12:24:07.848Z,14.05
2024-02-05T12:26:34.956Z,14.39
2024-02-05T12:29:01.860Z,14.64
2024-02-05T12:31:28.715Z,14.58
2024-02-05T12:34:00.876Z,14.96
2024-02-05T12:36:30.720Z,14.81
2024-02-05T12:38:57.358Z,15.09
2024-02-05T12:41:25.415Z,14.75
2024-02-05T12:43:52.354Z,14.74
2024-02-05T12:46:19.361Z,14.72
2024-02-05T12:48:47.777Z,14.51
2024-02-05T12:51:14.618Z,14.43
2024-02-05T12:53:43.148Z,14.22
2024-02-05T12:56:14.183Z,14.12
2024-02-05T12:58:42.482Z,14.06
2024-02-05T13:01:11.251Z,14.24
2024-02-05T13:03:40.776Z,14.40
2024-02-05T13:06:08.526Z,14.32
2024-02-05T13:08:35.826Z,14.47
2024-02-05T13:11:05.943Z,14.59
2024-02-05T13:13:33.529Z,14.72
2024-02-05T13:16:00.578Z,14.95
2024-02-05T13:18:27.510Z,14.73
2024-02-05T13:20:54.577Z,14.49
2024-02-05T13:23:21.544Z,14.33
2024-02-05T13:25:50.098Z,14.46
2024-02-05T13:28:17.335Z,14.26
2024-02-05T13:30:44.655Z,14.27
2024-02-05T13:33:11.703Z,14.19
2024-02-05T13:35:38.624Z,14.27
2024-02-05T13:38:06.407Z,14.19
2024-02-05T13:40:35.784Z,14.11
2024-02-05T13:43:21.708Z,14.11
2024-02-05T13:45:52.303Z,14.14
2024-02-05T13:48:19.402Z,14.11
2024-02-05T13:50:46.378Z,14.00
2024-02-05T13:53:13.298Z,14.11
2024-02-05T13:55:40.079Z,14.02
2024-02-05T13:58:07.065Z,14.04
2024-02-05T14:00:34.013Z,13.98
2024-02-05T14:03:02.316Z,13.96
2024-02-05T14:05:29.126Z,13.93
2024-02-05T14:07:56.006Z,13.90
2024-02-05T14:10:22.890Z,13.91
2024-02-05T14:12:49.950Z,13.85
2024-02-05T14:15:16.720Z,13.87
2024-02-05T14:17:44.898Z,13.87
2024-02-05T14:20:12.196Z,13.95
2024-02-05T14:22:39.112Z,14.11
2024-02-05T14:25:06.606Z,14.15
2024-02-05T14:27:33.478Z,14.33
2024-02-05T14:30:00.329Z,14.35
2024-02-05T14:32:27.254Z,14.38
2024-02-05T14:34:54.141Z,14.27
2024-02-05T14:37:21.150Z,14.29
2024-02-05T14:39:48.078Z,14.01
2024-02-05T14:42:14.964Z,14.19
2024-02-05T14:44:41.763Z,14.28
2024-02-05T14:47:08.742Z,14.12
2024-02-05T14:49:35.926Z,14.15
2024-02-05T14:52:02.994Z,14.06
2024-02-05T14:54:29.791Z,13.97
2024-02-05T14:56:56.624Z,14.01
2024-02-05T14:59:31.419Z,13.89
2024-02-05T15:01:58.998Z,13.81
2024-02-05T15:04:26.987Z,13.69
2024-02-05T15:06:54.017Z,13.73
2024-02-05T15:09:20.977Z,13.66
2024-02-05T15:11:48.511Z,13.58
2024-02-05T15:14:16.285Z,13.62
2024-02-05T15:16:44.384Z,13.67
2024-02-05T15:19:12.058Z,13.56
2024-02-05T15:21:38.973Z,13.52
2024-02-05T15:24:07.364Z,13.55
2024-02-05T15:26:36.195Z,13.39
2024-02-05T15:29:03.804Z,13.37
2024-02-05T15:31:30.808Z,13.38
2024-02-05T15:33:57.905Z,13.30
2024-02-05T15:36:25.025Z,13.32
2024-02-05T15:38:51.849Z,13.21
2024-02-05T15:41:19.215Z,13.20
2024-02-05T15:43:46.784Z,13.15
2024-02-05T15:46:13.628Z,13.12
2024-02-05T15:48:40.518Z,13.08
2024-02-05T15:51:08.696Z,13.14
2024-02-05T15:53:35.586Z,13.07
2024-02-05T15:56:02.447Z,13.03
2024-02-05T15:58:29.925Z,13.01
2024-02-05T16:00:56.822Z,13.02
2024-02-05T16:03:23.762Z,13.01
2024-02-05T16:05:50.560Z,12.99
2024-02-05T16:08:17.511Z,12.99
2024-02-05T16:10:44.420Z,12.93
2024-02-05T16:13:11.304Z,12.92
2024-02-05T16:15:38.343Z,12.92
2024-02-05T16:18:05.664Z,12.94
2024-02-05T16:20:33.030Z,12.83
2024-02-05T16:22:59.943Z,12.81
2024-02-05T16:25:31.709Z,12.77
2024-02-05T16:27:59.141Z,12.74
2024-02-05T16:30:27.205Z,12.71
2024-02-05T16:32:54.232Z,12.73
2024-02-05T16:35:21.119Z,12.70
2024-02-05T16:37:48.057Z,12.65
2024-02-05T16:40:14.884Z,12.60
2024-02-05T16:42:41.715Z,12.56
2024-02-05T16:45:09.010Z,12.64
2024-02-05T16:47:36.076Z,12.72
2024-02-05T16:50:03.040Z,12.68
2024-02-05T16:52:30.018Z,12.68
2024-02-05T16:54:56.781Z,12.61
2024-02-05T16:57:25.005Z,12.59
2024-02-05T16:59:53.211Z,12.53
2024-02-05T17:02:20.188Z,12.55
2024-02-05T17:04:47.196Z,12.51
2024-02-05T17:07:14.087Z,12.38
2024-02-05T17:09:44.385Z,12.43
2024-02-05T17:12:11.771Z,12.34
2024-02-05T17:14:42.372Z,12.32
2024-02-05T17:17:09.479Z,12.37
2024-02-05T17:19:39.584Z,12.38
2024-02-05T17:22:07.000Z,12.38
2024-02-05T17:24:36.384Z,12.42
2024-02-05T17:27:04.316Z,12.37
2024-02-05T17:29:31.356Z,12.38
2024-02-05T17:31:58.182Z,12.30
2024-02-05T17:34:25.159Z,12.28
2024-02-05T17:36:53.344Z,12.29
2024-02-05T17:39:20.471Z,12.28
2024-02-05T17:41:47.374Z,12.27
2024-02-05T17:44:14.302Z,12.31
2024-02-05T17:46:46.989Z,12.25
2024-02-05T17:49:14.376Z,12.30
2024-02-05T17:51:41.504Z,12.24
2024-02-05T17:54:08.436Z,12.19
2024-02-05T17:56:36.021Z,12.16
2024-02-05T17:59:03.189Z,12.28
2024-02-05T18:01:30.631Z,12.26
2024-02-05T18:03:59.209Z,12.28
2024-02-05T18:06:27.480Z,12.25
2024-02-05T18:08:55.339Z,12.31
2024-02-05T18:11:22.938Z,12.24
2024-02-05T18:13:50.159Z,12.21
2024-02-05T18:16:17.610Z,12.24
2024-02-05T18:18:45.411Z,12.34
2024-02-05T18:21:12.853Z,12.31
2024-02-05T18:23:41.014Z,12.36
2024-02-05T18:26:07.936Z,12.39
2024-02-05T18:28:37.546Z,12.38
2024-02-05T18:31:05.744Z,12.40
2024-02-05T18:33:33.113Z,12.36
2024-02-05T18:36:00.112Z,12.32
2024-02-05T18:38:26.986Z,12.41
2024-02-05T18:40:57.101Z,12.33
2024-02-05T18:43:25.859Z,12.31
2024-02-05T18:46:00.286Z,12.37
2024-02-05T18:48:29.729Z,12.28
2024-02-05T18:50:57.239Z,12.29
2024-02-05T18:53:24.829Z,12.36
2024-02-05T18:55:51.704Z,12.33
2024-02-05T18:58:18.671Z,12.40
2024-02-05T19:00:45.717Z,12.38
2024-02-05T19:03:13.221Z,12.34
2024-02-05T19:05:40.260Z,12.32
2024-02-05T19:08:08.468Z,12.35
2024-02-05T19:10:36.149Z,12.57
2024-02-05T19:13:03.080Z,12.55
2024-02-05T19:15:30.058Z,12.52
2024-02-05T19:17:57.025Z,12.68
2024-02-05T19:20:23.988Z,12.69
2024-02-05T19:22:53.112Z,12.70
2024-02-05T19:25:20.474Z,12.76
2024-02-05T19:27:47.457Z,12.72
2024-02-05T19:30:14.808Z,12.79
2024-02-05T19:32:41.673Z,12.80
2024-02-05T19:35:10.462Z,12.84
2024-02-05T19:37:37.482Z,12.82
2024-02-05T19:40:04.917Z,12.83
2024-02-05T19:42:31.696Z,12.86
2024-02-05T19:44:58.627Z,12.87
2024-02-05T19:47:25.672Z,12.86
2024-02-05T19:49:52.789Z,12.82
2024-02-05T19:52:19.895Z,12.83
2024-02-05T19:54:47.431Z,12.84
2024-02-05T19:57:14.323Z,12.81
2024-02-05T19:59:41.126Z,12.77
2024-02-05T20:02:08.226Z,12.78
2024-02-05T20:04:36.079Z,12.79
2024-02-05T20:07:08.128Z,12.74
2024-02-05T20:09:36.029Z,12.79
2024-02-05T20:12:05.448Z,12.82
2024-02-05T20:14:34.128Z,12.78
2024-02-05T20:17:02.994Z,12.77
2024-02-05T20:19:30.319Z,12.85
2024-02-05T20:21:57.401Z,12.74
2024-02-05T20:24:24.309Z,12.66
2024-02-05T20:26:51.150Z,12.63
2024-02-05T20:29:17.980Z,12.41
2024-02-05T20:31:46.187Z,12.34
2024-02-05T20:34:23.794Z,12.24
2024-02-05T20:36:57.032Z,12.15
2024-02-05T20:39:24.003Z,11.93
2024-02-05T20:41:50.775Z,11.82
2024-02-05T20:44:17.625Z,11.68
2024-02-05T20:46:44.607Z,11.71
2024-02-05T20:49:11.667Z,11.82
2024-02-05T20:51:38.727Z,11.82
2024-02-05T20:54:06.098Z,11.76
2024-02-05T20:56:33.467Z,11.75
2024-02-05T20:59:00.365Z,11.84
2024-02-05T21:01:27.547Z,11.90
2024-02-05T21:03:55.621Z,11.83
2024-02-05T21:06:22.584Z,11.79
2024-02-05T21:08:49.388Z,12.01
2024-02-05T21:11:16.389Z,11.89
2024-02-05T21:13:43.348Z,11.85
2024-02-05T21:16:13.834Z,11.71
2024-02-05T21:18:41.297Z,11.83
2024-02-05T21:21:08.244Z,11.87
2024-02-05T21:23:35.152Z,11.88
2024-02-05T21:26:02.129Z,11.91
2024-02-05T21:28:29.368Z,11.83
2024-02-05T21:30:56.387Z,11.85
2024-02-05T21:33:23.263Z,11.82
2024-02-05T21:35:50.337Z,11.75
2024-02-05T21:38:17.079Z,11.77
2024-02-05T21:40:44.225Z,11.85
2024-02-05T21:43:11.583Z,11.83
2024-02-05T21:45:38.526Z,11.95
2024-02-05T21:48:10.229Z,12.24
2024-02-05T21:50:38.462Z,12.15
2024-02-05T21:53:05.758Z,12.09
2024-02-05T21:55:32.795Z,12.20
2024-02-05T21:57:59.676Z,12.05
2024-02-05T22:00:26.768Z,11.98
2024-02-05T22:02:53.526Z,11.89
2024-02-05T22:05:20.692Z,11.75
2024-02-05T22:07:47.698Z,11.87
2024-02-05T22:10:14.805Z,11.91
2024-02-05T22:12:41.742Z,11.88
2024-02-05T22:15:09.182Z,12.02
2024-02-05T22:17:37.481Z,11.94
2024-02-05T22:20:04.821Z,12.03
2024-02-05T22:22:31.782Z,11.98
2024-02-05T22:24:58.963Z,11.81
2024-02-05T22:27:25.784Z,11.89
2024-02-05T22:29:52.641Z,11.85
2024-02-05T22:32:19.411Z,11.81
2024-02-05T22:34:46.445Z,11.84
2024-02-05T22:37:13.283Z,11.78
2024-02-05T22:39:40.143Z,11.81
2024-02-05T22:42:07.157Z,11.81
2024-02-05T22:44:35.626Z,11.89
2024-02-05T22:47:02.385Z,12.02
2024-02-05T22:49:29.418Z,12.10
2024-02-05T22:51:56.333Z,12.14
2024-02-05T22:54:23.091Z,12.14
2024-02-05T22:56:49.891Z,12.23
2024-02-05T22:59:18.971Z,12.32
2024-02-05T23:01:46.071Z,12.32
2024-02-05T23:04:13.855Z,12.41
2024-02-05T23:06:41.054Z,12.46
2024-02-05T23:09:07.807Z,12.50
2024-02-05T23:11:34.678Z,12.48
2024-02-05T23:14:06.897Z,12.51
2024-02-05T23:16:34.817Z,12.59
2024-02-05T23:19:02.014Z,12.62
2024-02-05T23:21:28.938Z,12.66
2024-02-05T23:23:55.841Z,12.64
2024-02-05T23:26:22.670Z,12.76
2024-02-05T23:28:49.494Z,12.74
2024-02-05T23:31:16.475Z,12.75
2024-02-05T23:33:43.538Z,12.77
2024-02-05T23:36:10.548Z,12.71
2024-02-05T23:38:37.416Z,12.69
2024-02-05T23:41:04.405Z,12.66
2024-02-05T23:43:31.248Z,12.43
2024-02-05T23:45:58.279Z,12.24
2024-02-05T23:48:25.554Z,12.11
2024-02-05T23:50:52.472Z,11.81
2024-02-05T23:53:19.331Z,11.80
2024-02-05T23:55:47.440Z,11.67
2024-02-05T23:58:14.334Z,11.58
